sensor_id;sensor_type;location;lat;lon;timestamp;P1;durP1;ratioP1;P2;durP2;ratioP2
24153;SDS011;12312;53.362;-1.518;2023-02-03T00:00:25;10.77;;;3.00;;
24153;SDS011;12312;53.362;-1.518;2023-02-03T00:02:53;6.72;;;3.15;;
24153;SDS011;12312;53.362;-1.518;2023-02-03T00:05:19;6.03;;;2.78;;
24153;SDS011;12312;53.362;-1.518;2023-02-03T00:07:45;7.03;;;3.17;;
24153;SDS011;12312;53.362;-1.518;2023-02-03T00:10:11;9.63;;;3.13;;
24153;SDS011;12312;53.362;-1.518;2023-02-03T00:12:36;6.30;;;2.92;;
24153;SDS011;12312;53.362;-1.518;2023-02-03T00:15:02;10.32;;;2.78;;
24153;SDS011;12312;53.362;-1.518;2023-02-03T00:17:28;6.10;;;2.78;;
24153;SDS011;12312;53.362;-1.518;2023-02-03T00:19:54;7.25;;;2.95;;
24153;SDS011;12312;53.362;-1.518;2023-02-03T00:22:19;7.15;;;3.13;;
24153;SDS011;12312;53.362;-1.518;2023-02-03T00:24:47;6.82;;;2.90;;
24153;SDS011;12312;53.362;-1.518;2023-02-03T00:27:13;10.57;;;3.22;;
24153;SDS011;12312;53.362;-1.518;2023-02-03T00:29:39;9.73;;;3.10;;
24153;SDS011;12312;53.362;-1.518;2023-02-03T00:32:05;7.70;;;3.42;;
24153;SDS011;12312;53.362;-1.518;2023-02-03T00:34:30;10.52;;;2.65;;
24153;SDS011;12312;53.362;-1.518;2023-02-03T00:36:56;7.28;;;2.80;;
24153;SDS011;12312;53.362;-1.518;2023-02-03T00:39:22;6.85;;;3.25;;
24153;SDS011;12312;53.362;-1.518;2023-02-03T00:41:48;5.45;;;3.40;;
24153;SDS011;12312;53.362;-1.518;2023-02-03T00:44:13;11.30;;;3.85;;
24153;SDS011;12312;53.362;-1.518;2023-02-03T00:46:39;5.78;;;3.28;;
24153;SDS011;12312;53.362;-1.518;2023-02-03T00:49:05;10.38;;;3.67;;
24153;SDS011;12312;53.362;-1.518;2023-02-03T00:51:31;6.53;;;4.30;;
24153;SDS011;12312;53.362;-1.518;2023-02-03T00:53:58;8.27;;;5.30;;
24153;SDS011;12312;53.362;-1.518;2023-02-03T00:56:24;12.13;;;5.85;;
24153;SDS011;12312;53.362;-1.518;2023-02-03T00:58:49;9.70;;;5.90;;
24153;SDS011;12312;53.362;-1.518;2023-02-03T01:01:15;9.25;;;6.35;;
24153;SDS011;12312;53.362;-1.518;2023-02-03T01:03:40;9.55;;;5.70;;
24153;SDS011;12312;53.362;-1.518;2023-02-03T01:06:16;9.55;;;6.10;;
24153;SDS011;12312;53.362;-1.518;2023-02-03T01:08:43;8.27;;;5.38;;
24153;SDS011;12312;53.362;-1.518;2023-02-03T01:11:31;7.57;;;4.85;;
24153;SDS011;12312;53.362;-1.518;2023-02-03T01:16:24;6.70;;;4.18;;
24153;SDS011;12312;53.362;-1.518;2023-02-03T01:18:50;7.88;;;4.35;;
24153;SDS011;12312;53.362;-1.518;2023-02-03T01:21:17;8.75;;;4.25;;
24153;SDS011;12312;53.362;-1.518;2023-02-03T01:23:44;8.02;;;3.75;;
24153;SDS011;12312;53.362;-1.518;2023-02-03T01:26:11;6.97;;;3.75;;
24153;SDS011;12312;53.362;-1.518;2023-02-03T01:28:38;5.88;;;3.95;;
24153;SDS011;12312;53.362;-1.518;2023-02-03T01:31:11;8.07;;;4.82;;
24153;SDS011;12312;53.362;-1.518;2023-02-03T01:33:39;6.65;;;4.25;;
24153;SDS011;12312;53.362;-1.518;2023-02-03T01:36:06;9.77;;;4.60;;
24153;SDS011;12312;53.362;-1.518;2023-02-03T01:38:34;7.88;;;4.15;;
24153;SDS011;12312;53.362;-1.518;2023-02-03T01:41:01;6.95;;;4.97;;
24153;SDS011;12312;53.362;-1.518;2023-02-03T01:43:29;10.07;;;5.28;;
24153;SDS011;12312;53.362;-1.518;2023-02-03T01:45:59;11.27;;;4.57;;
24153;SDS011;12312;53.362;-1.518;2023-02-03T01:48:31;13.20;;;5.45;;
24153;SDS011;12312;53.362;-1.518;2023-02-03T01:51:01;14.27;;;6.10;;
24153;SDS011;12312;53.362;-1.518;2023-02-03T01:53:29;8.43;;;5.93;;
24153;SDS011;12312;53.362;-1.518;2023-02-03T01:55:57;13.73;;;7.45;;
24153;SDS011;12312;53.362;-1.518;2023-02-03T01:58:24;14.38;;;7.88;;
24153;SDS011;12312;53.362;-1.518;2023-02-03T02:00:54;14.60;;;7.65;;
24153;SDS011;12312;53.362;-1.518;2023-02-03T02:03:41;16.42;;;8.55;;
24153;SDS011;12312;53.362;-1.518;2023-02-03T02:06:11;19.15;;;8.93;;
24153;SDS011;12312;53.362;-1.518;2023-02-03T02:08:38;18.10;;;8.98;;
24153;SDS011;12312;53.362;-1.518;2023-02-03T02:11:06;20.88;;;10.55;;
24153;SDS011;12312;53.362;-1.518;2023-02-03T02:13:32;21.35;;;11.32;;
24153;SDS011;12312;53.362;-1.518;2023-02-03T02:44:06;22.55;;;14.48;;
24153;SDS011;12312;53.362;-1.518;2023-02-03T02:46:46;25.55;;;15.50;;
24153;SDS011;12312;53.362;-1.518;2023-02-03T02:49:33;20.45;;;14.45;;
24153;SDS011;12312;53.362;-1.518;2023-02-03T02:52:03;16.65;;;12.60;;
24153;SDS011;12312;53.362;-1.518;2023-02-03T02:54:32;22.88;;;12.32;;
24153;SDS011;12312;53.362;-1.518;2023-02-03T02:57:01;15.43;;;10.18;;
24153;SDS011;12312;53.362;-1.518;2023-02-03T02:59:28;15.07;;;10.23;;
24153;SDS011;12312;53.362;-1.518;2023-02-03T03:01:54;16.08;;;9.43;;
24153;SDS011;12312;53.362;-1.518;2023-02-03T03:04:21;17.10;;;10.20;;
24153;SDS011;12312;53.362;-1.518;2023-02-03T03:07:00;13.20;;;8.35;;
24153;SDS011;12312;53.362;-1.518;2023-02-03T03:09:32;19.00;;;9.95;;
24153;SDS011;12312;53.362;-1.518;2023-02-03T03:12:47;11.02;;;7.85;;
24153;SDS011;12312;53.362;-1.518;2023-02-03T03:15:06;16.70;;;10.40;;
24153;SDS011;12312;53.362;-1.518;2023-02-03T03:17:43;16.50;;;9.93;;
24153;SDS011;12312;53.362;-1.518;2023-02-03T03:20:23;19.30;;;9.77;;
24153;SDS011;12312;53.362;-1.518;2023-02-03T03:23:04;18.42;;;8.07;;
24153;SDS011;12312;53.362;-1.518;2023-02-03T03:25:53;14.35;;;8.15;;
24153;SDS011;12312;53.362;-1.518;2023-02-03T03:28:27;17.88;;;8.57;;
24153;SDS011;12312;53.362;-1.518;2023-02-03T03:30:59;19.05;;;9.45;;
24153;SDS011;12312;53.362;-1.518;2023-02-03T03:33:24;19.95;;;10.43;;
24153;SDS011;12312;53.362;-1.518;2023-02-03T03:35:58;17.60;;;8.50;;
24153;SDS011;12312;53.362;-1.518;2023-02-03T03:38:35;23.55;;;11.60;;
24153;SDS011;12312;53.362;-1.518;2023-02-03T03:41:11;18.60;;;10.45;;
24153;SDS011;12312;53.362;-1.518;2023-02-03T03:43:43;22.48;;;11.07;;
24153;SDS011;12312;53.362;-1.518;2023-02-03T03:49:11;22.70;;;11.10;;
24153;SDS011;12312;53.362;-1.518;2023-02-03T03:54:30;25.77;;;13.40;;
24153;SDS011;12312;53.362;-1.518;2023-02-03T03:59:39;28.58;;;14.57;;
24153;SDS011;12312;53.362;-1.518;2023-02-03T04:02:08;20.60;;;10.07;;
24153;SDS011;12312;53.362;-1.518;2023-02-03T04:04:36;23.80;;;11.77;;
24153;SDS011;12312;53.362;-1.518;2023-02-03T04:07:04;20.58;;;11.48;;
24153;SDS011;12312;53.362;-1.518;2023-02-03T04:09:29;26.63;;;12.43;;
24153;SDS011;12312;53.362;-1.518;2023-02-03T04:11:55;21.92;;;12.63;;
24153;SDS011;12312;53.362;-1.518;2023-02-03T04:14:30;25.13;;;12.73;;
24153;SDS011;12312;53.362;-1.518;2023-02-03T04:16:57;25.48;;;14.18;;
24153;SDS011;12312;53.362;-1.518;2023-02-03T04:19:24;24.45;;;12.10;;
24153;SDS011;12312;53.362;-1.518;2023-02-03T04:21:50;17.92;;;9.35;;
24153;SDS011;12312;53.362;-1.518;2023-02-03T04:24:15;18.33;;;10.00;;
24153;SDS011;12312;53.362;-1.518;2023-02-03T04:26:41;14.82;;;8.70;;
24153;SDS011;12312;53.362;-1.518;2023-02-03T04:29:06;12.88;;;8.23;;
24153;SDS011;12312;53.362;-1.518;2023-02-03T04:31:32;15.88;;;9.35;;
24153;SDS011;12312;53.362;-1.518;2023-02-03T04:33:57;18.13;;;9.30;;
24153;SDS011;12312;53.362;-1.518;2023-02-03T04:36:23;15.05;;;8.75;;
24153;SDS011;12312;53.362;-1.518;2023-02-03T04:38:48;11.93;;;8.13;;
24153;SDS011;12312;53.362;-1.518;2023-02-03T04:41:14;16.67;;;10.07;;
24153;SDS011;12312;53.362;-1.518;2023-02-03T04:43:40;15.20;;;9.93;;
24153;SDS011;12312;53.362;-1.518;2023-02-03T04:46:05;15.65;;;10.48;;
24153;SDS011;12312;53.362;-1.518;2023-02-03T04:48:30;13.75;;;9.43;;
24153;SDS011;12312;53.362;-1.518;2023-02-03T04:51:03;16.05;;;10.20;;
24153;SDS011;12312;53.362;-1.518;2023-02-03T04:53:30;13.23;;;8.82;;
24153;SDS011;12312;53.362;-1.518;2023-02-03T04:55:56;14.32;;;9.70;;
24153;SDS011;12312;53.362;-1.518;2023-02-03T04:58:22;13.07;;;8.30;;
24153;SDS011;12312;53.362;-1.518;2023-02-03T05:00:47;15.48;;;9.52;;
24153;SDS011;12312;53.362;-1.518;2023-02-03T05:03:13;16.48;;;9.07;;
24153;SDS011;12312;53.362;-1.518;2023-02-03T05:05:39;13.18;;;9.07;;
24153;SDS011;12312;53.362;-1.518;2023-02-03T05:08:04;17.20;;;9.93;;
24153;SDS011;12312;53.362;-1.518;2023-02-03T05:10:30;16.00;;;10.20;;
24153;SDS011;12312;53.362;-1.518;2023-02-03T05:12:56;15.52;;;9.80;;
24153;SDS011;12312;53.362;-1.518;2023-02-03T05:15:21;17.10;;;10.10;;
24153;SDS011;12312;53.362;-1.518;2023-02-03T05:17:47;20.25;;;10.73;;
24153;SDS011;12312;53.362;-1.518;2023-02-03T05:20:12;18.20;;;10.60;;
24153;SDS011;12312;53.362;-1.518;2023-02-03T05:22:38;16.65;;;9.77;;
24153;SDS011;12312;53.362;-1.518;2023-02-03T05:25:03;16.48;;;10.20;;
24153;SDS011;12312;53.362;-1.518;2023-02-03T05:27:29;13.05;;;8.80;;
24153;SDS011;12312;53.362;-1.518;2023-02-03T05:29:55;11.30;;;8.07;;
24153;SDS011;12312;53.362;-1.518;2023-02-03T05:32:20;11.80;;;7.90;;
24153;SDS011;12312;53.362;-1.518;2023-02-03T05:34:46;9.27;;;6.82;;
24153;SDS011;12312;53.362;-1.518;2023-02-03T05:37:11;12.05;;;7.57;;
24153;SDS011;12312;53.362;-1.518;2023-02-03T05:39:37;9.25;;;4.80;;
24153;SDS011;12312;53.362;-1.518;2023-02-03T05:42:02;12.18;;;8.23;;
24153;SDS011;12312;53.362;-1.518;2023-02-03T05:44:28;13.07;;;7.55;;
24153;SDS011;12312;53.362;-1.518;2023-02-03T05:46:54;11.38;;;8.75;;
24153;SDS011;12312;53.362;-1.518;2023-02-03T05:49:21;11.43;;;8.15;;
24153;SDS011;12312;53.362;-1.518;2023-02-03T05:51:48;11.23;;;6.97;;
24153;SDS011;12312;53.362;-1.518;2023-02-03T05:54:15;13.10;;;9.27;;
24153;SDS011;12312;53.362;-1.518;2023-02-03T05:56:40;13.80;;;7.82;;
24153;SDS011;12312;53.362;-1.518;2023-02-03T05:59:06;17.33;;;9.35;;
24153;SDS011;12312;53.362;-1.518;2023-02-03T06:01:32;16.65;;;10.57;;
24153;SDS011;12312;53.362;-1.518;2023-02-03T06:03:58;16.23;;;10.15;;
24153;SDS011;12312;53.362;-1.518;2023-02-03T06:06:25;15.45;;;11.07;;
24153;SDS011;12312;53.362;-1.518;2023-02-03T06:08:57;22.48;;;13.02;;
24153;SDS011;12312;53.362;-1.518;2023-02-03T06:11:23;24.95;;;14.93;;
24153;SDS011;12312;53.362;-1.518;2023-02-03T06:13:49;25.92;;;15.02;;
24153;SDS011;12312;53.362;-1.518;2023-02-03T06:16:14;31.50;;;17.33;;
24153;SDS011;12312;53.362;-1.518;2023-02-03T06:18:40;39.17;;;20.85;;
24153;SDS011;12312;53.362;-1.518;2023-02-03T06:21:05;37.50;;;20.10;;
24153;SDS011;12312;53.362;-1.518;2023-02-03T06:23:31;39.75;;;21.55;;
24153;SDS011;12312;53.362;-1.518;2023-02-03T06:25:57;46.70;;;23.15;;
24153;SDS011;12312;53.362;-1.518;2023-02-03T06:28:24;41.90;;;19.60;;
24153;SDS011;12312;53.362;-1.518;2023-02-03T06:30:50;37.60;;;19.33;;
24153;SDS011;12312;53.362;-1.518;2023-02-03T06:33:17;39.42;;;20.42;;
24153;SDS011;12312;53.362;-1.518;2023-02-03T06:35:44;60.30;;;25.88;;
24153;SDS011;12312;53.362;-1.518;2023-02-03T06:38:09;37.90;;;21.67;;
24153;SDS011;12312;53.362;-1.518;2023-02-03T06:40:35;35.72;;;19.13;;
24153;SDS011;12312;53.362;-1.518;2023-02-03T06:43:01;43.40;;;20.55;;
24153;SDS011;12312;53.362;-1.518;2023-02-03T06:45:26;35.08;;;18.52;;
24153;SDS011;12312;53.362;-1.518;2023-02-03T06:47:52;26.42;;;15.77;;
24153;SDS011;12312;53.362;-1.518;2023-02-03T06:50:17;29.55;;;16.80;;
24153;SDS011;12312;53.362;-1.518;2023-02-03T06:52:43;29.17;;;15.07;;
24153;SDS011;12312;53.362;-1.518;2023-02-03T06:55:09;29.60;;;15.73;;
24153;SDS011;12312;53.362;-1.518;2023-02-03T06:57:35;30.15;;;15.05;;
24153;SDS011;12312;53.362;-1.518;2023-02-03T07:00:06;22.35;;;13.25;;
24153;SDS011;12312;53.362;-1.518;2023-02-03T07:02:33;21.13;;;12.38;;
24153;SDS011;12312;53.362;-1.518;2023-02-03T07:04:58;19.85;;;12.30;;
24153;SDS011;12312;53.362;-1.518;2023-02-03T07:07:24;20.52;;;11.10;;
24153;SDS011;12312;53.362;-1.518;2023-02-03T07:09:49;19.63;;;11.80;;
24153;SDS011;12312;53.362;-1.518;2023-02-03T07:12:14;18.63;;;11.15;;
24153;SDS011;12312;53.362;-1.518;2023-02-03T07:14:40;19.27;;;12.65;;
24153;SDS011;12312;53.362;-1.518;2023-02-03T07:17:05;23.75;;;13.05;;
24153;SDS011;12312;53.362;-1.518;2023-02-03T07:19:31;23.85;;;13.82;;
24153;SDS011;12312;53.362;-1.518;2023-02-03T07:21:56;23.23;;;14.55;;
24153;SDS011;12312;53.362;-1.518;2023-02-03T07:24:22;22.92;;;14.95;;
24153;SDS011;12312;53.362;-1.518;2023-02-03T07:26:47;35.08;;;17.13;;
24153;SDS011;12312;53.362;-1.518;2023-02-03T07:29:13;33.28;;;18.67;;
24153;SDS011;12312;53.362;-1.518;2023-02-03T07:31:38;24.65;;;16.30;;
24153;SDS011;12312;53.362;-1.518;2023-02-03T07:34:04;32.70;;;19.30;;
24153;SDS011;12312;53.362;-1.518;2023-02-03T07:36:30;36.65;;;18.40;;
24153;SDS011;12312;53.362;-1.518;2023-02-03T07:38:56;35.88;;;21.85;;
24153;SDS011;12312;53.362;-1.518;2023-02-03T07:41:22;31.70;;;18.90;;
24153;SDS011;12312;53.362;-1.518;2023-02-03T07:43:48;33.05;;;20.10;;
24153;SDS011;12312;53.362;-1.518;2023-02-03T07:46:13;39.40;;;23.67;;
24153;SDS011;12312;53.362;-1.518;2023-02-03T07:48:39;35.42;;;19.90;;
24153;SDS011;12312;53.362;-1.518;2023-02-03T07:51:04;37.38;;;21.60;;
24153;SDS011;12312;53.362;-1.518;2023-02-03T07:53:30;38.83;;;22.13;;
24153;SDS011;12312;53.362;-1.518;2023-02-03T07:56:02;34.30;;;20.58;;
24153;SDS011;12312;53.362;-1.518;2023-02-03T07:58:29;39.42;;;22.98;;
24153;SDS011;12312;53.362;-1.518;2023-02-03T08:00:55;35.88;;;22.05;;
24153;SDS011;12312;53.362;-1.518;2023-02-03T08:03:22;34.28;;;20.48;;
24153;SDS011;12312;53.362;-1.518;2023-02-03T08:05:47;31.83;;;21.08;;
24153;SDS011;12312;53.362;-1.518;2023-02-03T08:08:13;28.30;;;18.42;;
24153;SDS011;12312;53.362;-1.518;2023-02-03T08:10:39;27.63;;;17.75;;
24153;SDS011;12312;53.362;-1.518;2023-02-03T08:13:04;25.27;;;15.48;;
24153;SDS011;12312;53.362;-1.518;2023-02-03T08:15:30;28.85;;;18.23;;
24153;SDS011;12312;53.362;-1.518;2023-02-03T08:17:55;26.60;;;16.08;;
24153;SDS011;12312;53.362;-1.518;2023-02-03T08:20:21;23.95;;;15.48;;
24153;SDS011;12312;53.362;-1.518;2023-02-03T08:22:47;35.38;;;13.93;;
24153;SDS011;12312;53.362;-1.518;2023-02-03T08:25:12;19.98;;;12.07;;
24153;SDS011;12312;53.362;-1.518;2023-02-03T08:27:38;16.45;;;11.50;;
24153;SDS011;12312;53.362;-1.518;2023-02-03T08:30:05;13.18;;;8.90;;
24153;SDS011;12312;53.362;-1.518;2023-02-03T08:32:32;10.43;;;7.55;;
24153;SDS011;12312;53.362;-1.518;2023-02-03T08:34:58;9.30;;;5.90;;
24153;SDS011;12312;53.362;-1.518;2023-02-03T08:37:23;9.70;;;5.80;;
24153;SDS011;12312;53.362;-1.518;2023-02-03T08:39:50;7.80;;;4.05;;
24153;SDS011;12312;53.362;-1.518;2023-02-03T08:42:15;5.70;;;4.03;;
24153;SDS011;12312;53.362;-1.518;2023-02-03T08:44:41;5.55;;;4.18;;
24153;SDS011;12312;53.362;-1.518;2023-02-03T08:47:08;7.35;;;4.07;;
24153;SDS011;12312;53.362;-1.518;2023-02-03T08:49:34;5.90;;;4.18;;
24153;SDS011;12312;53.362;-1.518;2023-02-03T08:52:03;5.38;;;4.03;;
24153;SDS011;12312;53.362;-1.518;2023-02-03T08:54:30;8.25;;;3.80;;
24153;SDS011;12312;53.362;-1.518;2023-02-03T08:56:56;6.43;;;3.08;;
24153;SDS011;12312;53.362;-1.518;2023-02-03T08:59:22;6.45;;;3.75;;
24153;SDS011;12312;53.362;-1.518;2023-02-03T09:01:48;5.82;;;2.97;;
24153;SDS011;12312;53.362;-1.518;2023-02-03T09:04:15;6.40;;;3.00;;
24153;SDS011;12312;53.362;-1.518;2023-02-03T09:06:44;5.25;;;3.38;;
24153;SDS011;12312;53.362;-1.518;2023-02-03T09:09:12;3.20;;;2.40;;
24153;SDS011;12312;53.362;-1.518;2023-02-03T09:11:39;4.13;;;2.97;;
24153;SDS011;12312;53.362;-1.518;2023-02-03T09:14:05;4.38;;;2.70;;
24153;SDS011;12312;53.362;-1.518;2023-02-03T09:16:30;4.90;;;2.40;;
24153;SDS011;12312;53.362;-1.518;2023-02-03T09:18:55;4.10;;;2.53;;
24153;SDS011;12312;53.362;-1.518;2023-02-03T09:21:21;4.32;;;2.58;;
24153;SDS011;12312;53.362;-1.518;2023-02-03T09:23:47;3.50;;;2.13;;
24153;SDS011;12312;53.362;-1.518;2023-02-03T09:26:13;3.60;;;2.00;;
24153;SDS011;12312;53.362;-1.518;2023-02-03T09:28:39;4.38;;;2.10;;
24153;SDS011;12312;53.362;-1.518;2023-02-03T09:31:06;4.30;;;1.98;;
24153;SDS011;12312;53.362;-1.518;2023-02-03T09:33:36;2.25;;;1.77;;
24153;SDS011;12312;53.362;-1.518;2023-02-03T09:36:02;2.92;;;1.90;;
24153;SDS011;12312;53.362;-1.518;2023-02-03T09:38:30;3.60;;;2.00;;
24153;SDS011;12312;53.362;-1.518;2023-02-03T09:43:34;3.47;;;2.40;;
24153;SDS011;12312;53.362;-1.518;2023-02-03T09:46:07;3.47;;;2.67;;
24153;SDS011;12312;53.362;-1.518;2023-02-03T09:48:42;3.47;;;2.20;;
24153;SDS011;12312;53.362;-1.518;2023-02-03T09:51:20;5.43;;;2.72;;
24153;SDS011;12312;53.362;-1.518;2023-02-03T09:53:51;4.88;;;2.50;;
24153;SDS011;12312;53.362;-1.518;2023-02-03T09:56:25;5.63;;;3.22;;
24153;SDS011;12312;53.362;-1.518;2023-02-03T09:58:54;3.92;;;2.85;;
24153;SDS011;12312;53.362;-1.518;2023-02-03T10:01:20;7.10;;;3.90;;
24153;SDS011;12312;53.362;-1.518;2023-02-03T10:10:32;7.18;;;4.05;;
24153;SDS011;12312;53.362;-1.518;2023-02-03T10:18:10;5.57;;;4.13;;
24153;SDS011;12312;53.362;-1.518;2023-02-03T10:20:41;8.02;;;4.80;;
24153;SDS011;12312;53.362;-1.518;2023-02-03T10:23:13;13.20;;;5.18;;
24153;SDS011;12312;53.362;-1.518;2023-02-03T10:25:52;16.55;;;4.75;;
24153;SDS011;12312;53.362;-1.518;2023-02-03T10:28:21;11.50;;;4.85;;
24153;SDS011;12312;53.362;-1.518;2023-02-03T10:33:24;17.80;;;4.80;;
24153;SDS011;12312;53.362;-1.518;2023-02-03T10:35:54;9.18;;;4.43;;
24153;SDS011;12312;53.362;-1.518;2023-02-03T10:41:27;13.38;;;5.15;;
24153;SDS011;12312;53.362;-1.518;2023-02-03T10:43:55;5.55;;;3.97;;
24153;SDS011;12312;53.362;-1.518;2023-02-03T10:46:27;6.10;;;3.40;;
24153;SDS011;12312;53.362;-1.518;2023-02-03T10:48:54;5.55;;;3.35;;
24153;SDS011;12312;53.362;-1.518;2023-02-03T10:53:53;4.82;;;3.53;;
24153;SDS011;12312;53.362;-1.518;2023-02-03T10:56:22;5.72;;;2.90;;
24153;SDS011;12312;53.362;-1.518;2023-02-03T11:01:23;3.83;;;3.00;;
24153;SDS011;12312;53.362;-1.518;2023-02-03T11:04:08;4.63;;;3.10;;
24153;SDS011;12312;53.362;-1.518;2023-02-03T11:06:55;4.70;;;2.70;;
24153;SDS011;12312;53.362;-1.518;2023-02-03T11:09:38;4.07;;;2.53;;
24153;SDS011;12312;53.362;-1.518;2023-02-03T11:14:40;4.03;;;2.25;;
24153;SDS011;12312;53.362;-1.518;2023-02-03T11:17:17;2.05;;;1.85;;
24153;SDS011;12312;53.362;-1.518;2023-02-03T11:19:47;2.33;;;1.85;;
24153;SDS011;12312;53.362;-1.518;2023-02-03T11:25:03;3.85;;;2.20;;
24153;SDS011;12312;53.362;-1.518;2023-02-03T11:27:40;5.53;;;1.80;;
24153;SDS011;12312;53.362;-1.518;2023-02-03T11:32:41;2.30;;;1.65;;
24153;SDS011;12312;53.362;-1.518;2023-02-03T11:37:47;2.80;;;1.58;;
24153;SDS011;12312;53.362;-1.518;2023-02-03T11:42:40;2.35;;;1.23;;
24153;SDS011;12312;53.362;-1.518;2023-02-03T12:00:49;2.17;;;0.85;;
24153;SDS011;12312;53.362;-1.518;2023-02-03T12:11:23;1.27;;;0.60;;
24153;SDS011;12312;53.362;-1.518;2023-02-03T12:13:56;1.45;;;0.57;;
24153;SDS011;12312;53.362;-1.518;2023-02-03T12:17:18;1.48;;;0.50;;
24153;SDS011;12312;53.362;-1.518;2023-02-03T12:22:15;1.58;;;0.50;;
24153;SDS011;12312;53.362;-1.518;2023-02-03T12:27:56;1.20;;;0.70;;
24153;SDS011;12312;53.362;-1.518;2023-02-03T12:30:28;1.30;;;0.60;;
24153;SDS011;12312;53.362;-1.518;2023-02-03T12:33:00;2.08;;;0.65;;
24153;SDS011;12312;53.362;-1.518;2023-02-03T12:35:35;0.70;;;0.50;;
24153;SDS011;12312;53.362;-1.518;2023-02-03T12:40:51;2.67;;;0.70;;
24153;SDS011;12312;53.362;-1.518;2023-02-03T12:43:24;1.42;;;0.50;;
24153;SDS011;12312;53.362;-1.518;2023-02-03T12:46:28;1.85;;;0.80;;
24153;SDS011;12312;53.362;-1.518;2023-02-03T12:49:02;1.70;;;0.73;;
24153;SDS011;12312;53.362;-1.518;2023-02-03T12:51:39;0.65;;;0.60;;
24153;SDS011;12312;53.362;-1.518;2023-02-03T12:54:18;3.22;;;1.33;;
24153;SDS011;12312;53.362;-1.518;2023-02-03T12:56:46;5.43;;;1.88;;
24153;SDS011;12312;53.362;-1.518;2023-02-03T12:59:19;2.55;;;1.30;;
24153;SDS011;12312;53.362;-1.518;2023-02-03T13:01:50;3.70;;;1.35;;
24153;SDS011;12312;53.362;-1.518;2023-02-03T13:07:23;2.45;;;1.20;;
24153;SDS011;12312;53.362;-1.518;2023-02-03T13:09:57;3.60;;;1.35;;
24153;SDS011;12312;53.362;-1.518;2023-02-03T13:12:31;4.38;;;1.38;;
24153;SDS011;12312;53.362;-1.518;2023-02-03T13:18:04;2.15;;;1.40;;
24153;SDS011;12312;53.362;-1.518;2023-02-03T13:20:52;3.97;;;1.48;;
24153;SDS011;12312;53.362;-1.518;2023-02-03T13:23:18;3.88;;;1.52;;
24153;SDS011;12312;53.362;-1.518;2023-02-03T13:34:38;2.85;;;1.00;;
24153;SDS011;12312;53.362;-1.518;2023-02-03T13:37:11;1.70;;;1.00;;
24153;SDS011;12312;53.362;-1.518;2023-02-03T13:43:18;2.33;;;0.90;;
24153;SDS011;12312;53.362;-1.518;2023-02-03T13:45:44;1.20;;;0.95;;
24153;SDS011;12312;53.362;-1.518;2023-02-03T13:50:41;1.00;;;0.90;;
24153;SDS011;12312;53.362;-1.518;2023-02-03T13:55:43;1.15;;;0.80;;
24153;SDS011;12312;53.362;-1.518;2023-02-03T13:58:21;2.85;;;1.00;;
24153;SDS011;12312;53.362;-1.518;2023-02-03T14:03:17;1.15;;;1.00;;
24153;SDS011;12312;53.362;-1.518;2023-02-03T14:05:48;1.58;;;1.02;;
24153;SDS011;12312;53.362;-1.518;2023-02-03T14:16:39;3.67;;;1.20;;
24153;SDS011;12312;53.362;-1.518;2023-02-03T14:21:37;3.40;;;1.20;;
24153;SDS011;12312;53.362;-1.518;2023-02-03T14:24:10;3.75;;;1.33;;
24153;SDS011;12312;53.362;-1.518;2023-02-03T14:26:38;1.58;;;1.30;;
24153;SDS011;12312;53.362;-1.518;2023-02-03T14:29:08;2.08;;;1.00;;
24153;SDS011;12312;53.362;-1.518;2023-02-03T14:34:43;3.72;;;1.20;;
24153;SDS011;12312;53.362;-1.518;2023-02-03T14:37:20;3.33;;;1.33;;
24153;SDS011;12312;53.362;-1.518;2023-02-03T14:45:24;2.97;;;1.50;;
24153;SDS011;12312;53.362;-1.518;2023-02-03T14:49:04;1.60;;;1.50;;
24153;SDS011;12312;53.362;-1.518;2023-02-03T14:51:24;3.65;;;1.83;;
24153;SDS011;12312;53.362;-1.518;2023-02-03T14:57:11;4.15;;;1.58;;
24153;SDS011;12312;53.362;-1.518;2023-02-03T14:59:55;1.60;;;1.50;;
24153;SDS011;12312;53.362;-1.518;2023-02-03T15:08:04;1.40;;;1.23;;
24153;SDS011;12312;53.362;-1.518;2023-02-03T15:10:49;2.92;;;1.10;;
24153;SDS011;12312;53.362;-1.518;2023-02-03T15:13:30;2.30;;;1.30;;
24153;SDS011;12312;53.362;-1.518;2023-02-03T15:15:56;8.05;;;1.48;;
24153;SDS011;12312;53.362;-1.518;2023-02-03T15:18:33;2.28;;;1.00;;
24153;SDS011;12312;53.362;-1.518;2023-02-03T15:21:04;8.18;;;1.02;;
24153;SDS011;12312;53.362;-1.518;2023-02-03T15:23:41;3.83;;;1.02;;
24153;SDS011;12312;53.362;-1.518;2023-02-03T15:26:24;2.90;;;1.10;;
24153;SDS011;12312;53.362;-1.518;2023-02-03T15:29:00;6.03;;;1.08;;
24153;SDS011;12312;53.362;-1.518;2023-02-03T15:31:36;4.43;;;1.23;;
24153;SDS011;12312;53.362;-1.518;2023-02-03T15:36:57;2.85;;;1.08;;
24153;SDS011;12312;53.362;-1.518;2023-02-03T15:42:08;6.22;;;1.38;;
24153;SDS011;12312;53.362;-1.518;2023-02-03T15:44:42;6.55;;;1.23;;
24153;SDS011;12312;53.362;-1.518;2023-02-03T15:47:24;5.57;;;1.50;;
24153;SDS011;12312;53.362;-1.518;2023-02-03T15:49:56;5.47;;;1.20;;
24153;SDS011;12312;53.362;-1.518;2023-02-03T15:52:26;4.28;;;1.33;;
24153;SDS011;12312;53.362;-1.518;2023-02-03T15:54:56;3.90;;;1.42;;
24153;SDS011;12312;53.362;-1.518;2023-02-03T15:57:32;3.45;;;1.30;;
24153;SDS011;12312;53.362;-1.518;2023-02-03T16:00:07;3.20;;;1.50;;
24153;SDS011;12312;53.362;-1.518;2023-02-03T16:02:40;7.72;;;1.70;;
24153;SDS011;12312;53.362;-1.518;2023-02-03T16:07:53;5.03;;;1.30;;
24153;SDS011;12312;53.362;-1.518;2023-02-03T16:12:50;5.38;;;1.30;;
24153;SDS011;12312;53.362;-1.518;2023-02-03T16:15:22;7.50;;;2.03;;
24153;SDS011;12312;53.362;-1.518;2023-02-03T16:17:53;5.45;;;1.63;;
24153;SDS011;12312;53.362;-1.518;2023-02-03T16:20:25;6.22;;;1.77;;
24153;SDS011;12312;53.362;-1.518;2023-02-03T16:23:03;5.72;;;1.55;;
24153;SDS011;12312;53.362;-1.518;2023-02-03T16:25:41;6.50;;;1.60;;
24153;SDS011;12312;53.362;-1.518;2023-02-03T16:30:54;6.95;;;1.75;;
24153;SDS011;12312;53.362;-1.518;2023-02-03T16:33:46;5.18;;;1.60;;
24153;SDS011;12312;53.362;-1.518;2023-02-03T16:36:32;7.90;;;1.98;;
24153;SDS011;12312;53.362;-1.518;2023-02-03T16:39:16;9.00;;;2.25;;
24153;SDS011;12312;53.362;-1.518;2023-02-03T16:42:00;7.18;;;1.60;;
24153;SDS011;12312;53.362;-1.518;2023-02-03T16:44:56;6.78;;;1.65;;
24153;SDS011;12312;53.362;-1.518;2023-02-03T16:47:40;9.25;;;2.25;;
24153;SDS011;12312;53.362;-1.518;2023-02-03T16:50:26;8.93;;;1.98;;
24153;SDS011;12312;53.362;-1.518;2023-02-03T16:53:12;6.95;;;1.95;;
24153;SDS011;12312;53.362;-1.518;2023-02-03T16:55:40;6.28;;;1.80;;
24153;SDS011;12312;53.362;-1.518;2023-02-03T16:58:06;7.50;;;1.98;;
24153;SDS011;12312;53.362;-1.518;2023-02-03T17:00:33;12.35;;;2.05;;
24153;SDS011;12312;53.362;-1.518;2023-02-03T17:03:02;11.43;;;2.15;;
24153;SDS011;12312;53.362;-1.518;2023-02-03T17:05:28;12.52;;;1.77;;
24153;SDS011;12312;53.362;-1.518;2023-02-03T17:07:54;9.52;;;1.92;;
24153;SDS011;12312;53.362;-1.518;2023-02-03T17:10:19;8.10;;;3.35;;
24153;SDS011;12312;53.362;-1.518;2023-02-03T17:12:45;8.88;;;2.40;;
24153;SDS011;12312;53.362;-1.518;2023-02-03T17:15:10;10.27;;;2.25;;
24153;SDS011;12312;53.362;-1.518;2023-02-03T17:17:36;10.93;;;1.90;;
24153;SDS011;12312;53.362;-1.518;2023-02-03T17:20:01;7.93;;;1.90;;
24153;SDS011;12312;53.362;-1.518;2023-02-03T17:22:27;11.90;;;2.10;;
24153;SDS011;12312;53.362;-1.518;2023-02-03T17:24:54;9.48;;;2.28;;
24153;SDS011;12312;53.362;-1.518;2023-02-03T17:27:19;6.60;;;2.05;;
24153;SDS011;12312;53.362;-1.518;2023-02-03T17:29:45;14.75;;;2.60;;
24153;SDS011;12312;53.362;-1.518;2023-02-03T17:32:10;10.25;;;2.70;;
24153;SDS011;12312;53.362;-1.518;2023-02-03T17:34:41;6.70;;;2.38;;
24153;SDS011;12312;53.362;-1.518;2023-02-03T17:37:06;14.88;;;2.60;;